Time;durP1;ratioP1;P1;durP2;ratioP2;P2;SDS_P1;SDS_P2;PMS_P1;PMS_P2;Temp;Humidity;BMP_temperature;BMP_pressure;BME280_temperature;BME280_humidity;BME280_pressure;Samples;Min_cycle;Max_cycle;Signal;HPM_P1;HPM_P2
2024/01/19 00:00:38;;;;;;;6.87;4.00;;;;;;;9.68;100.00;63956.47;5052109;28;20300;-56
2024/01/19 00:03:04;;;;;;;5.90;3.50;;;;;;;9.62;100.00;63951.84;5051888;28;20273;-53
2024/01/19 00:05:30;;;;;;;6.33;3.20;;;;;;;9.68;100.00;63958.41;5051754;28;20185;-55
2024/01/19 00:07:56;;;;;;;7.13;3.57;;;;;;;9.75;100.00;63964.13;5033744;28;20205;-56
2024/01/19 00:10:21;;;;;;;8.83;4.27;;;;;;;9.85;100.00;63972.53;5051603;28;20309;-53
2024/01/19 00:12:47;;;;;;;4.20;3.57;;;;;;;9.71;100.00;63959.19;5051852;28;20206;-55
2024/01/19 00:15:13;;;;;;;5.97;4.17;;;;;;;9.74;100.00;63965.53;5051576;28;20221;-54
2024/01/19 00:17:39;;;;;;;8.30;5.07;;;;;;;9.97;100.00;63985.13;5051473;28;20210;-54
2024/01/19 00:20:09;;;;;;;6.53;4.70;;;;;;;9.53;100.00;63945.09;5051528;28;20185;-54
2024/01/19 00:22:34;;;;;;;8.77;3.87;;;;;;;9.79;100.00;63967.94;5049893;28;20216;-54
2024/01/19 00:25:00;;;;;;;6.20;4.70;;;;;;;9.75;100.00;63966.63;5051673;28;20186;-60
2024/01/19 00:27:25;;;;;;;8.83;5.30;;;;;;;9.83;100.00;63970.34;5051240;28;20263;-56
2024/01/19 00:29:51;;;;;;;4.73;4.03;;;;;;;9.82;100.00;63971.78;5051601;28;20551;-55
2024/01/19 00:32:17;;;;;;;6.67;4.27;;;;;;;9.98;100.00;63986.19;5051267;28;20217;-53
2024/01/19 00:34:43;;;;;;;5.67;4.37;;;;;;;9.92;100.00;63980.19;5049917;28;20610;-54
2024/01/19 00:37:09;;;;;;;5.73;4.67;;;;;;;10.03;100.00;63997.25;5051425;28;20586;-54
2024/01/19 00:39:34;;;;;;;7.27;4.73;;;;;;;10.07;100.00;64001.09;5033717;28;20197;-54
2024/01/19 00:42:07;;;;;;;11.53;6.10;;;;;;;10.05;100.00;63996.94;5049905;28;20205;-53
2024/01/19 00:44:33;;;;;;;7.90;5.90;;;;;;;9.72;100.00;63963.34;5051333;28;20569;-54
2024/01/19 00:46:58;;;;;;;9.70;5.93;;;;;;;9.86;100.00;63973.63;5050302;28;20205;-54
2024/01/19 00:49:24;;;;;;;11.03;7.87;;;;;;;9.78;100.00;63967.38;5051099;28;20194;-54
2024/01/19 00:51:50;;;;;;;11.97;6.73;;;;;;;9.81;100.00;63970.69;5051053;28;20286;-54
2024/01/19 00:54:16;;;;;;;10.60;6.97;;;;;;;10.01;100.00;63992.00;5050967;28;20249;-55
2024/01/19 00:56:41;;;;;;;9.20;5.50;;;;;;;9.77;100.00;63968.81;5033534;28;20197;-54
2024/01/19 00:59:07;;;;;;;8.90;5.90;;;;;;;9.80;100.00;63969.56;5051094;28;20189;-53
2024/01/19 01:01:32;;;;;;;11.00;7.07;;;;;;;9.39;100.00;63924.75;5050939;28;20193;-54
2024/01/19 01:03:58;;;;;;;8.07;5.87;;;;;;;9.05;100.00;63890.63;5050972;28;20190;-54
2024/01/19 01:06:24;;;;;;;7.63;4.80;;;;;;;9.20;100.00;63903.97;5051037;28;20189;-56
2024/01/19 01:08:50;;;;;;;8.43;5.53;;;;;;;9.35;100.00;63922.91;5050993;28;20319;-54
2024/01/19 01:11:16;;;;;;;9.10;5.93;;;;;;;9.13;100.00;63893.81;5050999;28;20202;-54
2024/01/19 01:13:42;;;;;;;9.40;5.43;;;;;;;9.59;100.00;63948.59;5016550;28;20213;-54
2024/01/19 01:16:08;;;;;;;9.47;5.07;;;;;;;9.56;100.00;63945.84;5050674;28;20689;-54
2024/01/19 01:18:33;;;;;;;6.00;3.77;;;;;;;9.14;100.00;63899.94;5050678;28;20217;-55
2024/01/19 01:21:00;;;;;;;6.37;4.00;;;;;;;9.27;100.00;63916.66;5032831;28;20185;-55
2024/01/19 01:23:25;;;;;;;3.50;3.17;;;;;;;9.51;100.00;63937.88;5050501;28;20217;-54
2024/01/19 01:25:51;;;;;;;4.23;3.20;;;;;;;9.36;100.00;63923.44;5050607;28;20208;-59
2024/01/19 01:28:17;;;;;;;4.67;3.27;;;;;;;9.49;100.00;63938.22;5050396;28;20229;-56
2024/01/19 01:30:42;;;;;;;3.67;3.30;;;;;;;9.25;100.00;63909.47;5032675;28;20271;-55
2024/01/19 01:33:08;;;;;;;5.93;3.13;;;;;;;9.62;100.00;63949.34;5050534;28;20636;-56
2024/01/19 01:35:35;;;;;;;4.43;3.20;;;;;;;9.67;100.00;63957.88;5050711;28;20213;-55
2024/01/19 01:38:03;;;;;;;5.63;3.27;;;;;;;9.51;100.00;63939.84;5050560;28;20229;-56
2024/01/19 01:40:29;;;;;;;5.40;3.20;;;;;;;9.53;100.00;63942.59;5033290;28;20185;-54
2024/01/19 01:43:00;;;;;;;5.63;3.07;;;;;;;9.72;100.00;63960.84;5050155;28;20679;-54
2024/01/19 01:45:26;;;;;;;5.23;3.00;;;;;;;9.72;100.00;63957.75;5049087;28;20201;-54
2024/01/19 01:47:51;;;;;;;3.50;2.57;;;;;;;9.99;100.00;63990.38;5050622;28;20394;-55
2024/01/19 01:50:18;;;;;;;6.47;2.50;;;;;;;9.88;100.00;63978.31;5050461;28;20182;-54
2024/01/19 01:52:44;;;;;;;5.00;3.07;;;;;;;9.43;100.00;63931.66;5050346;28;20363;-54
2024/01/19 01:55:10;;;;;;;4.80;2.87;;;;;;;9.09;100.00;63891.97;5050389;28;20292;-56
2024/01/19 01:57:36;;;;;;;6.00;2.67;;;;;;;9.38;100.00;63923.66;5050450;28;20229;-55
2024/01/19 02:00:02;;;;;;;3.00;2.70;;;;;;;9.53;100.00;63942.59;5053815;28;20655;-56
2024/01/19 02:02:28;;;;;;;4.50;2.33;;;;;;;9.66;100.00;63951.75;5053620;28;20304;-55
2024/01/19 02:04:54;;;;;;;4.80;2.80;;;;;;;9.98;100.00;63991.22;5053802;28;20614;-56
2024/01/19 02:07:19;;;;;;;4.00;2.67;;;;;;;10.05;100.00;63996.38;5074397;22;20221;-55
2024/01/19 02:09:45;;;;;;;3.10;2.47;;;;;;;10.10;100.00;64004.38;5073188;28;20747;-55
2024/01/19 02:12:10;;;;;;;3.53;2.57;;;;;;;9.85;100.00;63977.56;5055520;28;20215;-59
2024/01/19 02:14:36;;;;;;;3.83;3.10;;;;;;;9.76;100.00;63967.72;5055902;28;20227;-53
2024/01/19 02:17:01;;;;;;;5.87;2.60;;;;;;;9.62;100.00;63946.81;5073601;28;20211;-55
2024/01/19 02:19:27;;;;;;;3.40;2.80;;;;;;;9.89;100.00;63981.41;5072116;28;20189;-53
2024/01/19 02:21:53;;;;;;;6.20;2.87;;;;;;;9.94;100.00;63987.41;5055207;28;20256;-54
2024/01/19 02:24:19;;;;;;;4.53;2.33;;;;;;;9.85;100.00;63977.56;5073417;28;20242;-54
2024/01/19 02:26:44;;;;;;;3.27;2.47;;;;;;;9.63;100.00;63951.00;5073396;28;20189;-55
2024/01/19 02:29:10;;;;;;;4.77;3.27;;;;;;;9.81;100.00;63973.19;5073191;28;20193;-54
2024/01/19 02:31:36;;;;;;;4.43;2.67;;;;;;;9.75;100.00;63966.09;5054947;28;20224;-54
2024/01/19 02:34:01;;;;;;;4.03;2.97;;;;;;;9.78;100.00;63969.91;5073228;28;20196;-54
2024/01/19 02:36:27;;;;;;;5.53;3.43;;;;;;;9.51;100.00;63940.41;5073135;28;20191;-54
2024/01/19 02:38:53;;;;;;;3.67;3.20;;;;;;;9.39;100.00;63924.22;5073005;28;20216;-54
2024/01/19 02:41:18;;;;;;;4.40;3.00;;;;;;;9.68;100.00;63958.97;5073154;28;20233;-56
2024/01/19 02:43:44;;;;;;;4.43;2.70;;;;;;;9.63;100.00;63951.00;5073384;28;20605;-55
2024/01/19 02:46:11;;;;;;;5.30;3.63;;;;;;;9.49;100.00;63938.22;5055080;28;20181;-55
2024/01/19 02:48:37;;;;;;;6.37;3.50;;;;;;;9.04;100.00;63889.00;5073297;28;20305;-56
2024/01/19 02:51:02;;;;;;;4.80;2.73;;;;;;;9.37;100.00;63924.53;5073065;28;20213;-55
2024/01/19 02:53:28;;;;;;;6.70;3.47;;;;;;;9.25;100.00;63911.97;5073161;28;20216;-55
2024/01/19 02:55:53;;;;;;;3.67;2.87;;;;;;;9.21;100.00;63907.59;5072856;28;20220;-54
2024/01/19 02:58:19;;;;;;;3.70;2.83;;;;;;;9.50;100.00;63939.28;5072883;28;20239;-56
2024/01/19 03:00:44;;;;;;;4.73;3.17;;;;;;;9.53;100.00;63940.06;5053337;28;20192;-56
2024/01/19 03:03:10;;;;;;;3.67;2.90;;;;;;;9.38;100.00;63921.13;5069668;28;20242;-55
2024/01/19 03:05:36;;;;;;;2.50;2.30;;;;;;;9.24;100.00;63910.88;5072927;28;20219;-56
2024/01/19 03:08:02;;;;;;;3.53;2.40;;;;;;;9.06;100.00;63889.22;5072978;28;20205;-55
2024/01/19 03:10:28;;;;;;;5.50;3.00;;;;;;;8.62;100.00;63843.13;5072041;28;20268;-53
2024/01/19 03:12:54;;;;;;;3.03;2.00;;;;;;;8.72;100.00;63854.03;5072853;28;20216;-55
2024/01/19 03:15:19;;;;;;;3.77;2.20;;;;;;;8.81;100.00;63866.38;5054550;28;20216;-56
2024/01/19 03:17:45;;;;;;;3.93;2.30;;;;;;;8.95;100.00;63882.22;5072654;28;20224;-54
2024/01/19 03:20:10;;;;;;;3.67;2.20;;;;;;;8.94;100.00;63878.06;5072454;28;20188;-54
2024/01/19 03:22:36;;;;;;;2.50;2.10;;;;;;;9.05;100.00;63888.13;5042554;23;20230;-56
2024/01/19 03:25:02;;;;;;;2.10;1.90;;;;;;;9.10;100.00;63895.56;5032532;28;20190;-55
2024/01/19 03:27:28;;;;;;;4.33;2.40;;;;;;;9.33;100.00;63915.69;5032550;28;20218;-55
2024/01/19 03:29:55;;;;;;;2.97;1.60;;;;;;;9.22;100.00;63909.22;5032387;28;20186;-55
2024/01/19 03:32:21;;;;;;;3.30;1.77;;;;;;;9.17;100.00;63903.75;5036921;22;20217;-55
2024/01/19 03:34:46;;;;;;;4.03;2.03;;;;;;;9.36;100.00;63921.47;5072321;28;20307;-55
2024/01/19 03:37:12;;;;;;;2.53;1.87;;;;;;;9.25;100.00;63912.50;5072261;28;20209;-54
2024/01/19 03:39:37;;;;;;;3.17;2.10;;;;;;;9.22;100.00;63906.16;5072084;28;20299;-54
2024/01/19 03:42:03;;;;;;;3.43;2.07;;;;;;;9.28;100.00;63913.28;5072244;28;20228;-56
2024/01/19 03:44:29;;;;;;;5.27;1.93;;;;;;;9.24;100.00;63908.91;5072258;28;20199;-55
2024/01/19 03:46:54;;;;;;;4.83;1.97;;;;;;;9.21;100.00;63905.09;5072133;28;20212;-54
2024/01/19 03:49:20;;;;;;;2.37;2.10;;;;;;;9.19;100.00;63905.41;5054137;28;20188;-54
2024/01/19 03:52:02;;;;;;;2.77;1.60;;;;;;;9.26;100.00;63913.06;5071900;28;20184;-54
2024/01/19 03:54:27;;;;;;;2.57;1.90;;;;;;;9.23;100.00;63904.75;5071875;28;20592;-55
2024/01/19 03:56:54;;;;;;;3.10;1.73;;;;;;;9.26;100.00;63911.09;5071726;28;20205;-53
2024/01/19 03:59:19;;;;;;;3.37;1.90;;;;;;;9.29;100.00;63916.88;5070056;28;20257;-57
2024/01/19 04:01:45;;;;;;;3.07;1.70;;;;;;;9.20;100.00;63906.50;5068831;28;20220;-56
2024/01/19 04:04:10;;;;;;;2.80;1.67;;;;;;;9.37;100.00;63922.56;5072000;28;20192;-55
2024/01/19 04:06:36;;;;;;;3.23;1.93;;;;;;;9.32;100.00;63917.66;5071528;28;20195;-54
2024/01/19 04:09:02;;;;;;;1.70;1.40;;;;;;;9.32;100.00;63920.16;5071476;28;20193;-54
2024/01/19 04:11:28;;;;;;;2.40;1.97;;;;;;;9.36;100.00;63920.91;5072033;28;20184;-54
2024/01/19 04:13:54;;;;;;;2.90;2.03;;;;;;;9.30;100.00;63914.91;5071684;28;20193;-55
2024/01/19 04:16:20;;;;;;;2.97;1.50;;;;;;;9.30;100.00;63917.44;5071583;28;20250;-55
2024/01/19 04:18:45;;;;;;;5.43;2.50;;;;;;;9.24;100.00;63908.91;5071581;28;20219;-55
2024/01/19 04:21:11;;;;;;;2.97;2.00;;;;;;;9.20;100.00;63903.97;5070901;28;20207;-54
2024/01/19 04:23:36;;;;;;;2.70;1.67;;;;;;;9.21;100.00;63903.09;5071587;28;20262;-54
2024/01/19 04:26:02;;;;;;;2.27;1.77;;;;;;;9.14;100.00;63900.50;5069719;28;20287;-55
2024/01/19 04:28:27;;;;;;;2.50;1.90;;;;;;;9.26;100.00;63913.06;5071567;28;20628;-53
2024/01/19 04:30:53;;;;;;;3.43;1.80;;;;;;;9.36;100.00;63921.47;5071339;28;20199;-55
2024/01/19 04:33:18;;;;;;;3.90;1.60;;;;;;;9.30;100.00;63914.91;5053446;28;20278;-56
2024/01/19 04:35:47;;;;;;;2.53;2.20;;;;;;;9.37;100.00;63922.56;5071347;28;20564;-53
2024/01/19 04:38:12;;;;;;;3.77;2.23;;;;;;;9.17;100.00;63901.25;5071440;28;20273;-53
2024/01/19 04:40:38;;;;;;;3.00;2.00;;;;;;;9.31;100.00;63918.53;5053302;28;20188;-53
2024/01/19 04:43:03;;;;;;;4.17;2.10;;;;;;;9.30;100.00;63917.44;5071084;28;20208;-53
2024/01/19 04:45:29;;;;;;;1.87;1.40;;;;;;;9.24;100.00;63911.41;5071429;28;20585;-56
2024/01/19 04:47:54;;;;;;;3.30;1.60;;;;;;;9.31;100.00;63916.00;5053383;28;20209;-59
2024/01/19 04:50:20;;;;;;;4.17;1.80;;;;;;;9.61;100.00;63950.78;5071274;28;20181;-54
2024/01/19 04:52:45;;;;;;;2.57;1.70;;;;;;;9.84;100.00;63976.47;5053159;28;20215;-55
2024/01/19 04:55:18;;;;;;;4.33;1.97;;;;;;;9.84;100.00;63973.41;5070910;28;20262;-54
2024/01/19 04:57:45;;;;;;;3.70;1.73;;;;;;;9.82;100.00;63973.72;5052787;28;20212;-55
2024/01/19 05:00:12;;;;;;;3.03;2.00;;;;;;;9.65;100.00;63953.19;5070857;28;20685;-54
2024/01/19 05:02:37;;;;;;;2.30;1.70;;;;;;;9.87;100.00;63977.25;5070746;28;20219;-54
2024/01/19 05:05:03;;;;;;;3.77;1.63;;;;;;;9.86;100.00;63975.59;5070870;28;20264;-58
2024/01/19 05:07:29;;;;;;;3.27;2.17;;;;;;;9.87;100.00;63979.75;5052704;28;20631;-55
2024/01/19 05:09:55;;;;;;;2.90;1.47;;;;;;;9.74;100.00;63962.47;5053265;28;20276;-55
2024/01/19 05:12:22;;;;;;;3.13;1.80;;;;;;;9.82;100.00;63971.22;5052694;28;20373;-62
2024/01/19 05:14:48;;;;;;;3.63;1.83;;;;;;;9.75;100.00;63963.56;5052847;28;20224;-55
2024/01/19 05:17:14;;;;;;;4.23;2.00;;;;;;;9.76;100.00;63967.16;5070741;28;20224;-56
2024/01/19 05:19:39;;;;;;;5.20;2.47;;;;;;;9.67;100.00;63957.88;5070820;28;20192;-53
2024/01/19 05:22:06;;;;;;;3.03;2.30;;;;;;;9.73;100.00;63958.88;5070880;28;20205;-55
2024/01/19 05:24:32;;;;;;;4.07;2.30;;;;;;;9.90;100.00;63983.03;5070384;28;20677;-55
2024/01/19 05:26:58;;;;;;;2.90;2.00;;;;;;;9.82;100.00;63973.72;5070369;28;20296;-57
2024/01/19 05:29:23;;;;;;;5.40;2.00;;;;;;;9.55;100.00;63944.78;5070760;28;20256;-54
2024/01/19 05:31:49;;;;;;;2.70;1.70;;;;;;;9.38;100.00;63923.09;5070709;28;20746;-55
2024/01/19 05:34:15;;;;;;;2.73;2.10;;;;;;;9.64;100.00;63952.09;5073191;28;20184;-56
2024/01/19 05:36:42;;;;;;;4.33;2.67;;;;;;;9.56;100.00;63943.34;5073963;28;20188;-55
2024/01/19 05:39:07;;;;;;;3.50;2.77;;;;;;;9.59;100.00;63946.06;5074119;28;20188;-55
2024/01/19 05:41:33;;;;;;;6.20;3.10;;;;;;;9.58;100.00;63945.53;5074045;28;20189;-55
2024/01/19 05:44:00;;;;;;;8.73;3.60;;;;;;;9.22;100.00;63909.22;5073961;28;20354;-56
2024/01/19 05:46:25;;;;;;;9.60;5.00;;;;;;;9.57;100.00;63946.94;5073893;28;20181;-56
2024/01/19 05:48:51;;;;;;;9.47;5.87;;;;;;;9.41;100.00;63926.41;5073366;28;20212;-55
2024/01/19 05:51:16;;;;;;;7.90;5.63;;;;;;;8.98;100.00;63879.94;5072582;28;20181;-55
2024/01/19 05:53:42;;;;;;;8.07;4.90;;;;;;;9.06;100.00;63891.75;5056016;28;20307;-54
2024/01/19 05:56:08;;;;;;;9.30;4.83;;;;;;;9.18;100.00;63906.81;5073689;28;20592;-55
2024/01/19 05:58:34;;;;;;;7.17;4.73;;;;;;;8.99;100.00;63881.56;5072737;28;20216;-55
2024/01/19 06:01:02;;;;;;;6.50;4.90;;;;;;;8.18;100.00;63795.59;5073915;28;20196;-55
2024/01/19 06:03:33;;;;;;;5.00;3.47;;;;;;;8.60;100.00;63843.44;5074085;28;20704;-56
2024/01/19 06:06:00;;;;;;;37.73;30.17;;;;;;;9.43;100.00;63929.13;5073842;28;20211;-56
2024/01/19 06:08:25;;;;;;;5.73;4.10;;;;;;;9.29;100.00;63916.34;5073858;28;20293;-52
2024/01/19 06:10:51;;;;;;;4.80;3.00;;;;;;;9.30;100.00;63917.44;5055807;28;20696;-56
2024/01/19 06:13:17;;;;;;;4.50;2.90;;;;;;;9.08;100.00;63891.41;5073408;28;20747;-54
2024/01/19 06:15:42;;;;;;;7.23;3.27;;;;;;;9.09;100.00;63894.47;5049008;28;20221;-54
2024/01/19 06:18:08;;;;;;;7.00;2.87;;;;;;;9.16;100.00;63902.66;5057986;28;20629;-56
2024/01/19 06:20:40;;;;;;;3.67;2.77;;;;;;;9.00;100.00;63884.63;5073436;28;20231;-53
2024/01/19 06:23:06;;;;;;;4.90;2.90;;;;;;;9.04;100.00;63889.00;5073986;28;20208;-56
2024/01/19 06:25:31;;;;;;;5.27;4.07;;;;;;;9.15;100.00;63901.56;5073341;28;20230;-58
2024/01/19 06:27:57;;;;;;;3.33;2.63;;;;;;;8.85;100.00;63868.22;5073466;28;20217;-54
2024/01/19 06:30:23;;;;;;;3.17;2.23;;;;;;;8.82;100.00;63865.53;5073172;28;20620;-54
2024/01/19 06:32:48;;;;;;;2.97;2.27;;;;;;;8.83;100.00;63866.06;5073267;28;20291;-55
2024/01/19 06:35:13;;;;;;;3.90;2.53;;;;;;;9.09;100.00;63892.50;5073052;28;20311;-56
2024/01/19 06:37:39;;;;;;;4.93;2.27;;;;;;;9.05;100.00;63890.13;5072901;28;20295;-56
2024/01/19 06:40:07;;;;;;;3.87;2.97;;;;;;;8.86;100.00;63869.34;5055130;28;20242;-54
2024/01/19 06:42:33;;;;;;;3.40;2.57;;;;;;;9.03;100.00;63885.41;5053295;28;20208;-55
2024/01/19 06:44:58;;;;;;;5.77;2.60;;;;;;;8.89;100.00;63867.59;5053073;28;20199;-58
2024/01/19 06:47:24;;;;;;;5.93;2.83;;;;;;;8.75;100.00;63855.34;5072703;28;20219;-55
2024/01/19 06:49:50;;;;;;;3.70;2.63;;;;;;;8.95;100.00;63877.19;5054969;28;20185;-55
2024/01/19 06:52:16;;;;;;;5.23;2.87;;;;;;;9.12;100.00;63898.31;5067853;22;20225;-55
2024/01/19 06:54:41;;;;;;;4.43;2.73;;;;;;;9.32;100.00;63920.16;5052733;28;20687;-56
2024/01/19 06:57:07;;;;;;;3.53;2.30;;;;;;;9.11;100.00;63894.69;5052569;28;20257;-55
2024/01/19 06:59:33;;;;;;;4.70;2.50;;;;;;;9.14;100.00;63897.41;5052719;28;20675;-54
2024/01/19 07:01:59;;;;;;;5.47;2.97;;;;;;;9.22;100.00;63908.69;5053304;28;20217;-56
2024/01/19 07:04:25;;;;;;;3.67;2.40;;;;;;;9.32;100.00;63919.63;5052527;28;20578;-55
2024/01/19 07:06:50;;;;;;;3.43;2.70;;;;;;;9.35;100.00;63920.38;5052826;28;20217;-55
2024/01/19 07:09:17;;;;;;;3.53;2.60;;;;;;;9.53;100.00;63942.03;5035096;28;20178;-57
2024/01/19 07:11:42;;;;;;;5.30;3.27;;;;;;;9.59;100.00;63946.63;5034557;28;20201;-56
2024/01/19 07:14:09;;;;;;;3.77;2.40;;;;;;;9.38;100.00;63925.63;5052640;28;20284;-55
2024/01/19 07:16:43;;;;;;;6.27;2.83;;;;;;;9.39;100.00;63924.75;5034891;28;20185;-55
2024/01/19 07:19:09;;;;;;;5.30;3.10;;;;;;;9.64;100.00;63954.59;5052312;28;20193;-55
2024/01/19 07:21:41;;;;;;;5.80;2.70;;;;;;;9.58;100.00;63945.53;5052539;28;20293;-56
2024/01/19 07:24:08;;;;;;;7.43;2.93;;;;;;;9.80;100.00;63972.09;5052415;28;20883;-55
2024/01/19 07:26:34;;;;;;;6.80;4.17;;;;;;;9.89;100.00;63981.41;5052222;28;20292;-54
2024/01/19 07:29:04;;;;;;;6.13;2.90;;;;;;;9.91;100.00;63981.06;5052402;28;20181;-56
2024/01/19 07:31:30;;;;;;;5.90;2.77;;;;;;;10.15;100.00;64009.88;5052319;28;20693;-54
2024/01/19 07:33:56;;;;;;;5.40;3.27;;;;;;;10.27;100.00;64022.44;5052003;28;20197;-55
2024/01/19 07:36:21;;;;;;;5.43;2.93;;;;;;;10.40;100.00;64036.69;5051990;28;20222;-55
2024/01/19 07:38:47;;;;;;;3.97;2.50;;;;;;;10.54;100.00;64049.47;5034500;28;20296;-56
2024/01/19 07:41:12;;;;;;;5.77;3.60;;;;;;;10.71;100.00;64065.56;5051971;28;20574;-56
2024/01/19 07:43:38;;;;;;;7.33;3.40;;;;;;;10.76;100.00;64076.63;5052061;28;20323;-56
2024/01/19 07:46:03;;;;;;;6.70;3.90;;;;;;;10.45;100.00;64042.69;5052201;28;20288;-54
2024/01/19 07:48:29;;;;;;;7.03;3.33;;;;;;;10.65;100.00;64064.03;5052113;28;20201;-55
2024/01/19 07:50:55;;;;;;;4.87;3.27;;;;;;;10.80;100.00;64081.00;5051905;28;20575;-57
2024/01/19 07:53:20;;;;;;;7.87;4.30;;;;;;;10.68;100.00;64067.31;5051874;28;20278;-55
2024/01/19 07:55:46;;;;;;;6.30;4.00;;;;;;;10.63;100.00;64059.31;5051790;28;20217;-57
2024/01/19 07:58:11;;;;;;;5.53;3.40;;;;;;;10.52;100.00;64044.78;5051840;28;20201;-56
2024/01/19 08:00:37;;;;;;;8.57;4.93;;;;;;;10.66;100.00;64062.63;5051729;28;20223;-57
2024/01/19 08:03:04;;;;;;;20.80;9.23;;;;;;;10.41;100.00;64035.78;5051675;28;20216;-55
2024/01/19 08:05:29;;;;;;;15.67;6.93;;;;;;;10.76;100.00;64076.09;5051720;28;20691;-55
2024/01/19 08:07:55;;;;;;;10.23;6.27;;;;;;;10.83;100.00;64081.75;5033826;28;20225;-58
2024/01/19 08:10:20;;;;;;;13.50;6.30;;;;;;;10.92;100.00;64091.63;5033732;28;20212;-55
2024/01/19 08:12:46;;;;;;;12.43;6.60;;;;;;;11.04;100.00;64104.22;5051896;28;20641;-54
2024/01/19 08:15:11;;;;;;;8.60;5.17;;;;;;;11.61;100.00;64166.66;5051636;28;20253;-55
2024/01/19 08:17:37;;;;;;;9.67;4.47;;;;;;;12.13;100.00;64227.63;5051817;28;20205;-55
2024/01/19 08:20:03;;;;;;;24.97;8.53;;;;;;;11.73;100.00;64177.31;5051551;28;20555;-55
2024/01/19 08:22:29;;;;;;;8.13;5.37;;;;;;;11.96;100.00;64201.94;5033640;28;20220;-57
2024/01/19 08:24:55;;;;;;;6.83;4.73;;;;;;;11.99;100.00;64207.78;5051560;28;20193;-56
2024/01/19 08:27:21;;;;;;;9.27;3.90;;;;;;;12.11;100.00;64223.44;5064431;22;20237;-58
2024/01/19 08:29:49;;;;;;;5.33;4.00;;;;;;;12.24;100.00;64232.09;5071459;28;20228;-55
2024/01/19 08:32:16;;;;;;;5.63;3.33;;;;;;;12.40;100.00;64250.19;5050009;28;20591;-55
2024/01/19 08:34:44;;;;;;;7.10;4.90;;;;;;;12.68;100.00;64280.34;5051169;28;20219;-56
2024/01/19 08:37:10;;;;;;;6.03;3.57;;;;;;;12.95;100.00;64315.03;5051223;28;20213;-56
2024/01/19 08:39:37;;;;;;;6.97;3.70;;;;;;;12.95;100.00;64312.50;5051251;28;20605;-55
2024/01/19 08:42:04;;;;;;;9.48;4.63;;;;;;;12.92;100.00;64311.75;5051287;28;20209;-56
2024/01/19 08:44:30;;;;;;;6.65;3.58;;;;;;;13.25;100.00;64342.38;5051293;28;20193;-55
2024/01/19 08:46:57;;;;;;;8.05;3.20;;;;;;;13.83;100.00;64408.00;5051103;28;20213;-56
2024/01/19 08:49:22;;;;;;;6.43;2.90;;;;;;;14.44;100.00;64472.50;5051104;28;20193;-56
2024/01/19 08:51:50;;;;;;;6.13;2.40;;;;;;;14.70;100.00;64503.63;5050934;28;20212;-56
2024/01/19 08:54:17;;;;;;;7.30;2.58;;;;;;;14.67;100.00;64500.31;5051001;28;20208;-55
2024/01/19 08:56:43;;;;;;;5.50;3.00;;;;;;;14.76;100.00;64507.13;5033092;28;20192;-56
2024/01/19 08:59:09;;;;;;;6.90;3.22;;;;;;;14.35;100.00;64462.63;5051104;28;20651;-56
2024/01/19 09:01:34;;;;;;;6.70;3.55;;;;;;;13.92;100.00;64420.97;5033132;28;20659;-56
2024/01/19 09:04:00;;;;;;;7.37;3.53;;;;;;;14.06;100.00;64430.72;5052068;28;20185;-56
2024/01/19 09:06:26;;;;;;;6.90;3.95;;;;;;;13.83;100.00;64406.03;5033528;28;20184;-55
2024/01/19 09:08:51;;;;;;;7.10;4.10;;;;;;;13.85;100.00;64410.22;5050564;28;20248;-56
2024/01/19 09:11:18;;;;;;;5.90;3.22;;;;;;;13.91;100.00;64417.34;5051157;28;20613;-57
2024/01/19 09:13:44;;;;;;;4.75;3.90;;;;;;;13.66;100.00;64389.34;5032849;28;20220;-53
2024/01/19 09:16:10;;;;;;;10.52;4.80;;;;;;;13.42;100.00;64364.09;5050677;28;20212;-54
2024/01/19 09:18:40;;;;;;;12.73;4.60;;;;;;;13.82;100.00;64406.91;5050562;28;20640;-59
2024/01/19 09:21:06;;;;;;;7.28;4.05;;;;;;;13.90;100.00;64413.16;5050756;28;20635;-54
2024/01/19 09:23:32;;;;;;;10.13;3.58;;;;;;;13.38;100.00;64359.72;5050570;28;20703;-54
2024/01/19 09:25:57;;;;;;;7.47;3.47;;;;;;;13.17;100.00;64334.13;5050410;28;20217;-58
2024/01/19 09:28:23;;;;;;;4.60;3.20;;;;;;;13.66;100.00;64387.38;5050770;28;20605;-55
2024/01/19 09:30:49;;;;;;;6.20;3.63;;;;;;;14.40;100.00;64473.19;5050560;28;20247;-55
2024/01/19 09:33:15;;;;;;;4.47;2.83;;;;;;;14.26;100.00;64455.25;5050158;28;20283;-55
2024/01/19 09:35:41;;;;;;;7.38;3.03;;;;;;;14.45;97.00;64476.13;5050569;28;20213;-55
2024/01/19 09:38:06;;;;;;;8.20;3.22;;;;;;;14.21;95.50;64447.78;5032558;28;20266;-55
2024/01/19 09:40:32;;;;;;;5.53;2.92;;;;;;;14.01;100.00;64425.25;5050441;28;20284;-54
2024/01/19 09:42:59;;;;;;;7.40;4.10;;;;;;;15.40;93.58;64577.50;5050664;28;20232;-56
2024/01/19 09:45:41;;;;;;;6.88;3.58;;;;;;;16.10;86.81;64655.97;5050569;28;20189;-54
2024/01/19 09:48:12;;;;;;;10.25;4.50;;;;;;;16.63;85.43;64712.34;5050655;28;20209;-56
2024/01/19 09:50:46;;;;;;;6.60;4.53;;;;;;;17.09;82.22;64761.91;5050795;28;20198;-56
2024/01/19 09:53:20;;;;;;;10.55;5.53;;;;;;;17.35;81.17;64790.53;5032696;28;20217;-54
2024/01/19 09:55:47;;;;;;;12.55;5.55;;;;;;;17.20;78.29;64774.56;5050107;28;20217;-55
2024/01/19 09:58:14;;;;;;;6.65;4.70;;;;;;;16.59;78.96;64707.94;5032261;28;20247;-56
2024/01/19 10:00:39;;;;;;;7.95;5.22;;;;;;;15.96;82.38;64639.09;5050220;28;20200;-60
2024/01/19 10:03:07;;;;;;;11.02;5.45;;;;;;;15.62;84.47;64601.16;5032111;28;20218;-57
2024/01/19 10:05:38;;;;;;;11.23;5.35;;;;;;;15.25;88.66;64562.97;5050206;28;20189;-54
2024/01/19 10:08:05;;;;;;;13.45;4.90;;;;;;;15.02;90.45;64538.78;5050477;28;20256;-54
2024/01/19 10:10:31;;;;;;;13.65;6.15;;;;;;;15.05;89.73;64542.09;5050006;28;20746;-53
2024/01/19 10:12:57;;;;;;;14.88;6.57;;;;;;;14.53;93.52;64484.94;5050302;28;20204;-55
2024/01/19 10:15:22;;;;;;;10.68;5.78;;;;;;;14.36;94.81;64463.72;5050230;28;20308;-55
2024/01/19 10:17:49;;;;;;;12.75;6.32;;;;;;;14.33;95.74;64462.97;5049926;28;20213;-55
2024/01/19 10:20:15;;;;;;;7.32;5.93;;;;;;;14.00;99.67;64427.22;5050235;28;20547;-57
2024/01/19 10:22:41;;;;;;;11.52;6.72;;;;;;;13.46;100.00;64367.94;5052322;28;20217;-55
2024/01/19 10:25:08;;;;;;;11.95;5.72;;;;;;;13.68;100.00;64389.00;5052908;28;20208;-54
2024/01/19 10:27:54;;;;;;;10.57;6.28;;;;;;;13.58;100.00;64381.13;5051766;28;20666;-54
2024/01/19 10:30:22;;;;;;;12.85;7.57;;;;;;;13.33;100.00;64356.22;5052463;28;20201;-57
2024/01/19 10:32:51;;;;;;;13.27;7.22;;;;;;;13.63;100.00;64386.06;5053201;28;20217;-56
2024/01/19 10:35:23;;;;;;;13.75;6.93;;;;;;;13.82;100.00;64409.44;5052945;28;20213;-58
2024/01/19 10:37:49;;;;;;;11.45;7.15;;;;;;;13.53;100.00;64370.56;5053137;28;20240;-57
2024/01/19 10:40:19;;;;;;;16.45;8.45;;;;;;;13.36;100.00;64352.47;5035034;28;20224;-57
2024/01/19 10:42:47;;;;;;;17.58;9.07;;;;;;;13.30;100.00;64347.84;5052964;28;20241;-57
2024/01/19 10:45:35;;;;;;;19.80;9.25;;;;;;;13.14;100.00;64330.84;5052838;28;20268;-57
2024/01/19 10:48:03;;;;;;;16.70;8.20;;;;;;;13.09;100.00;64330.41;5053033;28;20362;-56
2024/01/19 10:50:30;;;;;;;12.70;8.18;;;;;;;13.14;100.00;64330.28;5052908;28;20185;-60
2024/01/19 10:52:58;;;;;;;15.85;8.18;;;;;;;13.24;100.00;64343.78;5052912;28;20219;-56
2024/01/19 10:55:28;;;;;;;13.27;7.93;;;;;;;13.07;100.00;64328.22;5052788;28;20706;-55
2024/01/19 10:57:57;;;;;;;15.93;7.87;;;;;;;12.97;100.00;64314.69;5034907;28;20217;-55
2024/01/19 11:00:27;;;;;;;12.70;7.50;;;;;;;13.14;100.00;64333.38;5052745;28;20189;-56
2024/01/19 11:02:57;;;;;;;16.65;7.88;;;;;;;13.26;100.00;64343.47;5034765;28;20221;-59
2024/01/19 11:05:24;;;;;;;13.20;7.20;;;;;;;13.27;100.00;64347.63;5052433;28;20201;-59
2024/01/19 11:07:52;;;;;;;11.77;7.07;;;;;;;13.25;100.00;64345.44;5052682;28;20213;-54
2024/01/19 11:10:20;;;;;;;13.43;7.45;;;;;;;13.36;100.00;64354.97;5053028;28;20651;-57
2024/01/19 11:12:52;;;;;;;14.80;6.53;;;;;;;13.36;100.00;64356.97;5034788;28;20221;-54
2024/01/19 11:15:36;;;;;;;12.77;6.82;;;;;;;13.49;100.00;64369.25;5052331;28;20236;-56
2024/01/19 11:18:06;;;;;;;15.93;6.82;;;;;;;13.73;100.00;64397.03;5052700;28;20221;-54
2024/01/19 11:20:34;;;;;;;11.30;5.37;;;;;;;13.98;100.00;64421.94;5052484;28;20291;-56
2024/01/19 11:23:10;;;;;;;11.20;5.78;;;;;;;14.01;100.00;64427.78;5052397;28;20209;-55
2024/01/19 11:25:39;;;;;;;10.80;5.40;;;;;;;14.37;100.00;64464.81;5052624;28;20223;-55